Portada
METAR-TAF:

METAR-TAF

Aeropuertos :

Aeropuerto de Florencia

Florencia, Italia

latitud: 43-48N, longitud: 011-12E, altitud: 40 m

Observación

El informe se hizo hace 1 hora y 54 minutos, a las 06:50 UTC
Temperatura
Presión
Visibilidad 10 km o más
sin nubes por debajo de 1500 m y sin presencia de cumulonimbus.

METAR: LIRQ 070650Z /////KT CAVOK ///// Q////

Hora: 09:44 (08:44 UTC)

Pronóstico

El informe se hizo hace 3 horas y 44 minutos, a las 05:00 UTC
Pronóstico válido del 07 a las 06 UTC al 08 a las 06 UTC
Viento 5 kt con dirección variable
Visibilidad 10 km o más
Nubes dispersas a una altura de 4000 ft

TAF: LIRQ 070500Z 0706/0806 VRB05KT 9999 SCT040

Observaciones y pronósticos meteorológicos de más de 4000 aeropuertos (mensajes METAR y TAF).

Los puntos amarillos y rojos representan las estaciones disponibles.

Ponga el ratón en el punto deseado para ver el nombre de la estación.

Haga clic para ver las observaciones y los pronósticos meteorológicos.

Para cambiar el mapa : haga clic en los botones verdes con una cruz de color negro para hacer un zoom, en el botón verde con un guión para alejar o en las flechas verdes para mapas adyacentes.


METAR-TAF: